Time;durP1;ratioP1;P1;durP2;ratioP2;P2;SDS_P1;SDS_P2;PMS_P1;PMS_P2;Temp;Humidity;BMP_temperature;BMP_pressure;BME280_temperature;BME280_humidity;BME280_pressure;Samples;Min_cycle;Max_cycle;Signal;HPM_P1;HPM_P2
2021/09/02 00:01:41;;;;;;;13.90;5.90;;;;;;;13.80;90.76;102037.77;112468;1204;61033;-80
2021/09/02 00:04:08;;;;;;;13.90;5.90;;;;;;;13.77;90.89;102037.52;112132;1197;60927;-82
2021/09/02 00:06:35;;;;;;;17.90;7.00;;;;;;;13.73;91.52;102035.84;110878;1197;62371;-81
2021/09/02 00:09:01;;;;;;;12.90;6.00;;;;;;;13.69;91.84;102032.90;110899;1205;61106;-81
2021/09/02 00:11:28;;;;;;;11.40;6.00;;;;;;;13.66;92.73;102038.01;110851;1197;60994;-82
2021/09/02 00:13:54;;;;;;;23.40;8.50;;;;;;;13.64;92.65;102039.25;111319;1205;61041;-81
2021/09/02 00:16:21;;;;;;;13.90;7.50;;;;;;;13.62;92.56;102035.36;111004;1205;61574;-82
2021/09/02 00:18:47;;;;;;;12.90;6.30;;;;;;;13.59;93.11;102036.55;110836;1205;61552;-82
2021/09/02 00:21:14;;;;;;;14.10;6.30;;;;;;;13.56;93.35;102039.04;110817;1198;61173;-80
2021/09/02 00:23:40;;;;;;;12.10;5.70;;;;;;;13.52;93.52;102033.25;110903;1199;60985;-81
2021/09/02 00:26:07;;;;;;;12.40;6.40;;;;;;;13.49;93.38;102036.04;110915;1205;61052;-81
2021/09/02 00:28:33;;;;;;;14.40;6.60;;;;;;;13.46;93.60;102036.33;110926;1204;61070;-80
2021/09/02 00:31:00;;;;;;;18.20;7.90;;;;;;;13.43;93.77;102041.42;110863;1205;61175;-80
2021/09/02 00:33:26;;;;;;;10.70;5.70;;;;;;;13.40;94.39;102046.20;110966;1196;61105;-80
2021/09/02 00:35:53;;;;;;;16.00;7.90;;;;;;;13.37;94.84;102047.83;110930;1204;60983;-79
2021/09/02 00:38:19;;;;;;;12.10;6.50;;;;;;;13.33;95.08;102049.20;110834;1205;61110;-83
2021/09/02 00:40:46;;;;;;;11.20;5.60;;;;;;;13.31;95.19;102051.25;110889;1204;60993;-82
2021/09/02 00:43:12;;;;;;;16.00;7.00;;;;;;;13.28;96.35;102050.67;110909;1204;61115;-80
2021/09/02 00:45:39;;;;;;;13.50;6.30;;;;;;;13.24;96.10;102047.11;110930;1205;61539;-81
2021/09/02 00:48:05;;;;;;;10.90;6.30;;;;;;;13.22;96.87;102045.20;110962;1205;61565;-82
2021/09/02 00:50:32;;;;;;;12.40;5.80;;;;;;;13.20;96.96;102043.09;110892;1205;61153;-80
2021/09/02 00:53:01;;;;;;;20.90;7.70;;;;;;;13.19;97.40;102042.85;111055;1204;71172;-85
2021/09/02 00:55:32;;;;;;;13.70;6.10;;;;;;;13.19;96.92;102039.88;111381;1198;72560;-80
2021/09/02 00:58:00;;;;;;;14.20;6.20;;;;;;;13.17;96.69;102040.87;110938;1205;62287;-81
2021/09/02 01:00:26;;;;;;;14.00;6.70;;;;;;;13.17;97.12;102041.13;110926;1205;61746;-79
2021/09/02 01:02:53;;;;;;;17.30;7.50;;;;;;;13.15;96.78;102038.09;110948;1205;74342;-81
2021/09/02 01:05:21;;;;;;;17.10;7.20;;;;;;;13.14;96.95;102038.23;110955;1205;72481;-80
2021/09/02 01:07:48;;;;;;;13.50;7.50;;;;;;;13.13;97.12;102038.36;110974;1205;73435;-81
2021/09/02 01:10:15;;;;;;;17.90;7.10;;;;;;;13.12;96.91;102040.11;110860;1200;61669;-80
2021/09/02 01:12:44;;;;;;;22.80;7.90;;;;;;;13.09;97.17;102039.47;110971;1204;61066;-80
2021/09/02 01:15:19;;;;;;;15.20;6.20;;;;;;;13.09;97.17;102041.63;111023;1205;74517;-81
2021/09/02 01:17:50;;;;;;;24.00;7.10;;;;;;;13.08;96.98;102042.02;110897;1197;71142;-81
2021/09/02 01:20:20;;;;;;;13.70;7.50;;;;;;;13.10;97.00;102037.46;111054;1204;72376;-81
2021/09/02 01:22:49;;;;;;;15.30;6.60;;;;;;;13.10;96.75;102040.77;110950;1206;61758;-80
2021/09/02 01:25:19;;;;;;;13.90;7.60;;;;;;;13.09;96.61;102040.66;111115;1197;61053;-81
2021/09/02 01:27:51;;;;;;;11.50;7.00;;;;;;;13.06;96.19;102039.39;110912;1198;75736;-80
2021/09/02 01:30:18;;;;;;;10.90;7.10;;;;;;;13.04;96.15;102044.18;110907;1205;71149;-80
2021/09/02 01:32:47;;;;;;;17.50;7.20;;;;;;;13.01;96.15;102042.55;110935;1205;72549;-81
2021/09/02 01:35:15;;;;;;;12.80;6.80;;;;;;;13.01;96.50;102039.26;111017;1205;63382;-80
2021/09/02 01:37:44;;;;;;;12.40;6.80;;;;;;;13.01;96.52;102044.65;110908;1204;61107;-81
2021/09/02 01:40:26;;;;;;;13.30;7.30;;;;;;;13.01;96.38;102041.18;110837;1205;75788;-80
2021/09/02 01:42:53;;;;;;;14.40;6.90;;;;;;;12.99;96.25;102044.55;110930;1205;71003;-80
2021/09/02 01:45:20;;;;;;;15.00;8.00;;;;;;;12.96;96.28;102042.23;110932;1204;72805;-81
2021/09/02 01:47:48;;;;;;;12.50;7.40;;;;;;;12.94;96.21;102044.91;110986;1205;63207;-80
2021/09/02 01:50:21;;;;;;;15.60;7.50;;;;;;;12.92;96.34;102045.30;110983;1204;61010;-80
2021/09/02 01:52:51;;;;;;;14.00;7.90;;;;;;;12.90;96.08;102050.47;110944;1198;74862;-80
2021/09/02 01:55:18;;;;;;;16.40;7.10;;;;;;;12.86;96.00;102054.05;110963;1199;70061;-82
2021/09/02 01:57:45;;;;;;;13.90;7.10;;;;;;;12.79;96.10;102061.86;111035;1205;73997;-81
2021/09/02 02:00:13;;;;;;;13.40;7.30;;;;;;;12.72;95.95;102064.40;110991;1205;61079;-81
2021/09/02 02:02:41;;;;;;;15.60;8.50;;;;;;;12.66;96.06;102061.64;110966;1205;60980;-81
2021/09/02 02:05:09;;;;;;;13.20;7.10;;;;;;;12.63;96.52;102062.96;111001;1205;74607;-82
2021/09/02 02:07:36;;;;;;;18.00;7.10;;;;;;;12.61;96.64;102061.92;110845;1204;70599;-82
2021/09/02 02:10:06;;;;;;;24.30;8.20;;;;;;;12.57;96.32;102058.63;110848;1205;72493;-80
2021/09/02 02:12:35;;;;;;;12.60;6.80;;;;;;;12.52;96.35;102054.30;110968;1205;62903;-81
2021/09/02 02:15:03;;;;;;;14.00;7.40;;;;;;;12.49;96.59;102058.17;110941;1205;61036;-81
2021/09/02 02:17:31;;;;;;;15.30;7.60;;;;;;;12.48;96.78;102057.39;111012;1204;74546;-80
2021/09/02 02:19:57;;;;;;;15.70;7.70;;;;;;;12.47;97.01;102059.95;110897;1205;71051;-81
2021/09/02 02:22:24;;;;;;;14.50;7.50;;;;;;;12.47;96.86;102057.09;110908;1198;73548;-81
2021/09/02 02:24:51;;;;;;;16.00;6.90;;;;;;;12.48;96.93;102058.33;110933;1205;61037;-81
2021/09/02 02:27:17;;;;;;;15.80;8.10;;;;;;;12.47;96.87;102054.99;111052;1199;61101;-81
2021/09/02 02:29:44;;;;;;;14.70;7.20;;;;;;;12.44;96.97;102055.83;110864;1205;74431;-81
2021/09/02 02:32:10;;;;;;;14.50;7.20;;;;;;;12.41;97.22;102051.84;110892;1205;61086;-80
2021/09/02 02:34:37;;;;;;;15.30;7.90;;;;;;;12.39;97.52;102052.47;111232;1204;61767;-80
2021/09/02 02:37:04;;;;;;;12.20;6.50;;;;;;;12.35;97.30;102055.33;111345;1203;62401;-81
2021/09/02 02:39:33;;;;;;;17.40;8.20;;;;;;;12.30;97.44;102054.22;111101;1205;61380;-82
2021/09/02 02:41:59;;;;;;;15.70;7.10;;;;;;;12.27;97.71;102055.21;110992;1206;74540;-81
2021/09/02 02:44:26;;;;;;;17.30;7.10;;;;;;;12.25;97.61;102055.94;111055;1205;61095;-82
2021/09/02 02:46:52;;;;;;;14.60;7.90;;;;;;;12.23;97.84;102052.88;111040;1197;61410;-81
2021/09/02 02:49:19;;;;;;;14.30;7.10;;;;;;;12.24;98.06;102052.45;110967;1205;62640;-82
2021/09/02 02:51:46;;;;;;;15.00;6.70;;;;;;;12.25;98.14;102049.59;110957;1198;61271;-82
2021/09/02 02:54:12;;;;;;;18.60;7.90;;;;;;;12.26;97.97;102052.86;110916;1205;61089;-80
2021/09/02 02:56:39;;;;;;;14.30;7.30;;;;;;;12.28;98.13;102050.01;110961;1205;61075;-81
2021/09/02 02:59:05;;;;;;;14.20;8.60;;;;;;;12.31;98.00;102047.41;110892;1205;61073;-81
2021/09/02 03:01:32;;;;;;;14.60;7.00;;;;;;;12.33;98.09;102050.71;110782;1206;61119;-82
2021/09/02 03:03:59;;;;;;;20.70;8.60;;;;;;;12.37;98.08;102051.39;111057;1205;61105;-82
2021/09/02 03:06:26;;;;;;;16.70;7.80;;;;;;;12.41;98.04;102049.68;111018;1205;60996;-82
2021/09/02 03:08:52;;;;;;;11.50;7.20;;;;;;;12.47;98.02;102049.67;110925;1205;61056;-81
2021/09/02 03:11:19;;;;;;;12.40;6.60;;;;;;;12.52;98.00;102044.55;110879;1205;61125;-82
2021/09/02 03:13:45;;;;;;;16.00;8.30;;;;;;;12.57;98.15;102044.35;110865;1204;61062;-82
2021/09/02 03:16:12;;;;;;;11.20;7.30;;;;;;;12.63;98.13;102044.98;110977;1204;61141;-80
2021/09/02 03:18:38;;;;;;;12.00;7.40;;;;;;;12.70;97.79;102042.98;110995;1205;61085;-82
2021/09/02 03:21:05;;;;;;;12.20;7.30;;;;;;;12.76;98.01;102043.59;110906;1205;61055;-82
2021/09/02 03:23:32;;;;;;;17.50;7.60;;;;;;;12.82;97.69;102042.36;110863;1198;72635;-81
2021/09/02 03:25:58;;;;;;;13.60;7.10;;;;;;;12.88;98.07;102039.98;110966;1204;62888;-82
2021/09/02 03:28:25;;;;;;;13.10;6.90;;;;;;;12.90;97.61;102036.96;111032;1204;61063;-81
2021/09/02 03:30:51;;;;;;;13.50;7.00;;;;;;;12.91;97.66;102034.71;110931;1204;61090;-81
2021/09/02 03:33:18;;;;;;;14.20;7.30;;;;;;;12.95;97.82;102037.33;110885;1205;70665;-80
2021/09/02 03:35:45;;;;;;;15.30;8.00;;;;;;;13.00;97.67;102036.31;110819;1205;61560;-80
2021/09/02 03:38:11;;;;;;;15.90;7.10;;;;;;;13.02;97.94;102038.96;110823;1206;62504;-81
2021/09/02 03:40:38;;;;;;;21.80;8.20;;;;;;;13.04;97.66;102038.31;110865;1205;61068;-81
2021/09/02 03:43:04;;;;;;;18.20;7.20;;;;;;;13.09;97.86;102043.22;110853;1204;73391;-81
2021/09/02 03:45:31;;;;;;;15.50;7.10;;;;;;;13.12;97.74;102043.27;110846;1205;72460;-80
2021/09/02 03:47:58;;;;;;;16.40;7.30;;;;;;;13.16;97.71;102041.36;110861;1205;72856;-81
2021/09/02 03:50:24;;;;;;;12.80;7.20;;;;;;;13.21;97.86;102039.13;111255;1205;61078;-81
2021/09/02 03:52:51;;;;;;;13.00;7.30;;;;;;;13.25;97.73;102042.65;111850;1205;61041;-80
2021/09/02 03:55:17;;;;;;;14.00;7.30;;;;;;;13.28;97.36;102041.42;110940;1205;74700;-80
2021/09/02 03:57:44;;;;;;;17.20;8.40;;;;;;;13.30;97.37;102044.30;110929;1204;70972;-80
2021/09/02 04:00:12;;;;;;;15.20;7.80;;;;;;;13.34;97.37;102044.94;110893;1205;73244;-81
2021/09/02 04:02:39;;;;;;;13.40;6.30;;;;;;;13.35;97.08;102044.24;111114;1197;62040;-81
2021/09/02 04:05:08;;;;;;;14.60;6.80;;;;;;;13.37;96.99;102042.99;110949;1205;62255;-82
2021/09/02 04:07:35;;;;;;;13.40;7.10;;;;;;;13.40;97.07;102043.25;110921;1204;75613;-81
2021/09/02 04:10:03;;;;;;;13.30;6.70;;;;;;;13.43;96.86;102045.71;110864;1205;70612;-81
2021/09/02 04:12:29;;;;;;;14.50;6.90;;;;;;;13.46;96.86;102049.66;110849;1205;73665;-80
2021/09/02 04:14:58;;;;;;;13.90;7.10;;;;;;;13.49;96.67;102050.07;110840;1197;61118;-81
2021/09/02 04:17:26;;;;;;;14.20;8.00;;;;;;;13.54;96.96;102050.64;110885;1204;62152;-82
2021/09/02 04:19:52;;;;;;;17.60;8.60;;;;;;;13.57;96.54;102052.67;110795;1201;73644;-81
2021/09/02 04:22:19;;;;;;;25.20;7.90;;;;;;;13.58;96.40;102054.33;110950;1206;61099;-82
2021/09/02 04:24:45;;;;;;;11.20;6.90;;;;;;;13.58;96.38;102054.86;110835;1205;62255;-82
2021/09/02 04:27:17;;;;;;;17.50;7.10;;;;;;;13.58;96.31;102053.94;110963;1205;61188;-82
2021/09/02 04:29:44;;;;;;;15.10;7.20;;;;;;;13.60;96.41;102052.68;110841;1198;61157;-81
2021/09/02 04:32:11;;;;;;;14.40;7.40;;;;;;;13.64;96.49;102055.98;110879;1204;74595;-82
2021/09/02 04:34:38;;;;;;;17.80;7.70;;;;;;;13.66;96.14;102052.34;110966;1197;71452;-80
2021/09/02 04:37:06;;;;;;;23.30;8.20;;;;;;;13.69;96.16;102051.44;110942;1206;71685;-82
2021/09/02 04:39:33;;;;;;;17.30;7.80;;;;;;;13.70;96.16;102050.53;111017;1198;62049;-82
2021/09/02 04:41:59;;;;;;;14.20;7.50;;;;;;;13.72;96.01;102048.95;110881;1204;61094;-82
2021/09/02 04:44:26;;;;;;;21.10;7.60;;;;;;;13.76;96.16;102050.45;110945;1204;75582;-83
2021/09/02 04:46:52;;;;;;;18.10;7.40;;;;;;;13.77;95.80;102049.77;110925;1204;71952;-82
2021/09/02 04:49:19;;;;;;;15.40;7.70;;;;;;;13.81;96.00;102052.56;110793;1205;61072;-82
2021/09/02 04:51:46;;;;;;;19.40;7.90;;;;;;;13.84;95.63;102055.77;110850;1205;61078;-81
2021/09/02 04:54:12;;;;;;;17.20;8.60;;;;;;;13.85;95.16;102057.67;110874;1205;61033;-81
2021/09/02 04:56:39;;;;;;;17.30;9.50;;;;;;;13.85;95.15;102060.89;111409;1205;75495;-82
2021/09/02 04:59:05;;;;;;;39.50;14.90;;;;;;;13.89;95.11;102064.79;111461;1206;61113;-83
2021/09/02 05:01:32;;;;;;;16.30;7.10;;;;;;;13.92;95.21;102063.90;111178;1206;61082;-81
2021/09/02 05:03:59;;;;;;;32.40;12.60;;;;;;;13.95;95.04;102062.70;110961;1198;62783;-82
2021/09/02 05:06:25;;;;;;;18.90;9.00;;;;;;;13.99;95.01;102062.20;110934;1205;61079;-80
2021/09/02 05:08:52;;;;;;;20.80;7.50;;;;;;;14.04;94.82;102063.79;110941;1206;61090;-81
2021/09/02 05:11:18;;;;;;;16.70;7.20;;;;;;;14.07;94.44;102066.00;111025;1204;61151;-80
2021/09/02 05:13:45;;;;;;;18.50;8.10;;;;;;;14.08;94.33;102072.50;110878;1206;61181;-74
2021/09/02 05:16:11;;;;;;;18.40;7.30;;;;;;;14.11;94.67;102071.81;110723;1204;61084;-72
2021/09/02 05:18:38;;;;;;;16.80;8.90;;;;;;;14.16;94.43;102072.55;110733;1204;61047;-73
2021/09/02 05:21:04;;;;;;;15.10;6.80;;;;;;;14.17;94.10;102072.91;110777;1204;61078;-72
2021/09/02 05:23:31;;;;;;;21.00;8.60;;;;;;;14.20;94.12;102070.83;110684;1205;61613;-74
2021/09/02 05:25:57;;;;;;;13.00;6.30;;;;;;;14.25;93.96;102074.54;110654;1206;61093;-74
2021/09/02 05:28:24;;;;;;;20.00;7.30;;;;;;;14.28;93.76;102071.73;110657;1206;60981;-74
2021/09/02 05:30:50;;;;;;;19.80;7.30;;;;;;;14.34;93.74;102072.73;110653;1206;61082;-74
2021/09/02 05:33:17;;;;;;;16.30;7.20;;;;;;;14.38;93.58;102073.02;110766;1204;61080;-72
2021/09/02 05:35:43;;;;;;;23.30;7.00;;;;;;;14.43;93.22;102074.61;110754;1204;61009;-72
2021/09/02 05:38:11;;;;;;;16.70;8.90;;;;;;;14.42;92.88;102070.60;110653;1204;61101;-75
2021/09/02 05:40:38;;;;;;;14.50;7.90;;;;;;;14.43;93.05;102071.20;110627;1205;62314;-75
2021/09/02 05:43:04;;;;;;;16.80;5.60;;;;;;;14.45;92.81;102071.30;110595;1205;61020;-72
2021/09/02 05:45:31;;;;;;;16.60;8.60;;;;;;;14.46;92.56;102072.48;110630;1198;61063;-72
2021/09/02 05:47:57;;;;;;;25.40;8.40;;;;;;;14.46;92.52;102069.27;110655;1198;71947;-73
2021/09/02 05:50:24;;;;;;;22.60;8.60;;;;;;;14.47;92.72;102070.37;110759;1197;73916;-73
2021/09/02 05:52:51;;;;;;;16.70;7.50;;;;;;;14.49;92.83;102073.23;110799;1205;63562;-74
2021/09/02 05:55:18;;;;;;;17.60;8.60;;;;;;;14.50;92.66;102074.16;110753;1206;61135;-74
2021/09/02 05:57:44;;;;;;;18.20;8.20;;;;;;;14.53;92.82;102078.14;110695;1205;61116;-74
2021/09/02 06:00:11;;;;;;;19.80;7.60;;;;;;;14.58;92.89;102078.84;110732;1206;61113;-73
2021/09/02 06:02:38;;;;;;;15.00;8.20;;;;;;;14.61;92.55;102081.58;110674;1205;72451;-74
2021/09/02 06:05:06;;;;;;;17.30;7.80;;;;;;;14.61;92.91;102080.14;110685;1206;61074;-71
2021/09/02 06:07:33;;;;;;;19.10;8.80;;;;;;;14.61;92.74;102079.90;110963;1205;61059;-74
2021/09/02 06:10:00;;;;;;;21.00;10.00;;;;;;;14.64;92.71;102077.84;110768;1207;61010;-73
2021/09/02 06:12:26;;;;;;;21.80;9.10;;;;;;;14.69;92.85;102078.04;110618;1206;61117;-72
2021/09/02 06:14:52;;;;;;;16.80;9.50;;;;;;;14.72;92.47;102074.16;110682;1207;61022;-72
2021/09/02 06:17:19;;;;;;;21.50;7.70;;;;;;;14.75;92.55;102081.46;110620;1205;61105;-71
2021/09/02 06:19:45;;;;;;;23.60;9.60;;;;;;;14.79;92.40;102082.10;110663;1205;61078;-73
2021/09/02 06:22:12;;;;;;;16.10;8.30;;;;;;;14.87;92.32;102081.42;110739;1204;61063;-74
2021/09/02 06:24:38;;;;;;;19.70;9.30;;;;;;;14.91;92.06;102081.61;110706;1205;61194;-74
2021/09/02 06:27:05;;;;;;;18.30;8.80;;;;;;;14.96;92.03;102076.14;110841;1206;61432;-72
2021/09/02 06:29:32;;;;;;;20.40;9.40;;;;;;;15.00;91.72;102070.38;110889;1205;61071;-71
2021/09/02 06:31:58;;;;;;;16.10;7.50;;;;;;;15.06;91.43;102069.78;110891;1207;61050;-71
2021/09/02 06:34:25;;;;;;;22.00;10.10;;;;;;;15.10;91.16;102073.13;110707;1205;61084;-72
2021/09/02 06:36:51;;;;;;;16.90;6.20;;;;;;;15.16;91.02;102072.71;110818;1205;61108;-72
2021/09/02 06:39:18;;;;;;;12.50;5.40;;;;;;;15.20;90.73;102071.09;110831;1206;61106;-70
2021/09/02 06:41:44;;;;;;;13.30;6.60;;;;;;;15.23;90.34;102069.45;110774;1206;62162;-70
2021/09/02 06:44:10;;;;;;;19.00;9.40;;;;;;;15.25;90.45;102069.34;110867;1206;61066;-72
2021/09/02 06:46:37;;;;;;;14.90;7.70;;;;;;;15.34;90.89;102070.30;110879;1204;61144;-71
2021/09/02 06:49:03;;;;;;;21.10;8.20;;;;;;;15.43;90.47;102074.39;110832;1205;61077;-70
2021/09/02 06:51:30;;;;;;;15.70;6.70;;;;;;;15.52;90.06;102074.14;110742;1205;61088;-73
2021/09/02 06:53:56;;;;;;;15.60;7.00;;;;;;;15.61;89.29;102076.36;110717;1205;61300;-72
2021/09/02 06:56:23;;;;;;;23.40;8.90;;;;;;;15.66;88.88;102077.16;110668;1198;61045;-70
2021/09/02 06:58:50;;;;;;;19.40;7.90;;;;;;;15.75;89.06;102073.83;110671;1206;61012;-73
2021/09/02 07:01:17;;;;;;;15.40;8.10;;;;;;;15.86;88.74;102079.23;110799;1198;69454;-73
2021/09/02 07:03:44;;;;;;;16.60;7.50;;;;;;;15.97;88.72;102077.09;110850;1206;72518;-73
2021/09/02 07:06:11;;;;;;;15.80;7.90;;;;;;;16.07;88.17;102073.58;110804;1206;61994;-70
2021/09/02 07:08:38;;;;;;;19.60;8.60;;;;;;;16.16;87.35;102076.30;110895;1198;60984;-72
2021/09/02 07:11:04;;;;;;;16.00;7.30;;;;;;;16.25;86.81;102073.81;110848;1206;61097;-72
2021/09/02 07:13:31;;;;;;;13.70;7.00;;;;;;;16.31;86.58;102075.59;110739;1206;70684;-72
2021/09/02 07:15:58;;;;;;;19.90;8.70;;;;;;;16.42;86.36;102071.02;110803;1205;72673;-72
2021/09/02 07:18:25;;;;;;;11.00;5.70;;;;;;;16.53;86.13;102070.55;111098;1205;62168;-71
2021/09/02 07:20:51;;;;;;;13.40;5.20;;;;;;;16.60;84.17;102072.61;110879;1206;61172;-71
2021/09/02 07:23:18;;;;;;;11.50;5.90;;;;;;;16.64;83.73;102076.80;110902;1206;61023;-72
2021/09/02 07:25:45;;;;;;;12.20;4.90;;;;;;;16.75;83.73;102083.86;110901;1205;70748;-72
2021/09/02 07:28:11;;;;;;;12.40;4.50;;;;;;;16.86;82.63;102086.30;110889;1206;73016;-71
2021/09/02 07:30:40;;;;;;;16.00;5.40;;;;;;;16.93;81.83;102087.99;110832;1206;61033;-73
2021/09/02 07:33:07;;;;;;;11.70;5.60;;;;;;;17.03;82.09;102081.97;110815;1205;61067;-71
2021/09/02 07:35:33;;;;;;;10.30;5.20;;;;;;;17.17;81.34;102083.60;110803;1204;75723;-72
2021/09/02 07:38:00;;;;;;;15.70;5.90;;;;;;;17.31;80.70;102083.01;110761;1204;69978;-71
2021/09/02 07:40:27;;;;;;;10.40;4.90;;;;;;;17.43;79.26;102087.80;110686;1205;61109;-71
2021/09/02 07:42:54;;;;;;;11.40;5.50;;;;;;;17.53;78.57;102089.58;111121;1205;61937;-70
2021/09/02 07:45:20;;;;;;;9.20;4.20;;;;;;;17.62;77.79;102094.98;110810;1205;61535;-71
2021/09/02 07:47:47;;;;;;;11.50;4.60;;;;;;;17.66;76.00;102102.42;110816;1203;61164;-71
2021/09/02 07:50:13;;;;;;;13.40;4.70;;;;;;;17.72;75.99;102107.69;110684;1206;71269;-73
2021/09/02 07:52:40;;;;;;;13.60;5.60;;;;;;;17.83;76.15;102111.71;110630;1207;61079;-74
2021/09/02 07:55:09;;;;;;;10.20;5.20;;;;;;;17.93;75.71;102114.20;110747;1205;61558;-73
2021/09/02 07:57:36;;;;;;;13.60;5.40;;;;;;;18.00;75.77;102121.39;110806;1205;61393;-71
2021/09/02 08:00:04;;;;;;;15.70;5.20;;;;;;;18.09;75.74;102115.83;110747;1205;74699;-72
2021/09/02 08:02:32;;;;;;;25.10;6.80;;;;;;;18.16;75.74;102120.90;110883;1205;70767;-71
2021/09/02 08:04:58;;;;;;;16.40;5.10;;;;;;;18.22;75.78;102120.98;110849;1207;72231;-72
2021/09/02 08:07:25;;;;;;;12.60;5.00;;;;;;;18.33;74.87;102123.80;110832;1203;61094;-72
2021/09/02 08:09:51;;;;;;;11.50;4.50;;;;;;;18.40;74.02;102123.17;110853;1205;61093;-73
2021/09/02 08:12:18;;;;;;;9.10;3.80;;;;;;;18.46;73.45;102125.46;110636;1206;61162;-74
2021/09/02 08:14:44;;;;;;;12.30;4.60;;;;;;;18.50;72.58;102125.20;110686;1205;71934;-74
2021/09/02 08:17:11;;;;;;;10.50;4.20;;;;;;;18.56;72.43;102128.40;110706;1204;76126;-72
2021/09/02 08:19:37;;;;;;;14.50;6.10;;;;;;;18.63;72.50;102131.83;110656;1198;61092;-74
2021/09/02 08:22:04;;;;;;;12.40;4.10;;;;;;;18.70;71.83;102126.13;110767;1198;61107;-72
2021/09/02 08:24:31;;;;;;;10.90;4.80;;;;;;;18.73;71.75;102127.33;110687;1204;75716;-72
2021/09/02 08:26:57;;;;;;;13.30;5.00;;;;;;;18.72;70.91;102125.53;110823;1205;61092;-71
2021/09/02 08:29:24;;;;;;;8.80;4.30;;;;;;;18.75;71.22;102124.23;110865;1205;73778;-72
2021/09/02 08:31:50;;;;;;;7.30;4.30;;;;;;;18.78;70.49;102123.33;110694;1203;61113;-72
2021/09/02 08:34:17;;;;;;;13.20;5.00;;;;;;;18.88;70.95;102119.19;110719;1205;62830;-72
2021/09/02 08:36:43;;;;;;;9.30;4.30;;;;;;;18.98;69.78;102117.68;110758;1205;75435;-72
2021/09/02 08:39:10;;;;;;;7.70;4.20;;;;;;;19.04;69.32;102118.63;110699;1207;61127;-74
2021/09/02 08:41:37;;;;;;;9.30;4.30;;;;;;;19.12;69.52;102118.82;110734;1205;61112;-74
2021/09/02 08:44:03;;;;;;;14.50;6.00;;;;;;;19.23;68.93;102119.48;110828;1206;61176;-72
2021/09/02 08:46:32;;;;;;;11.30;4.90;;;;;;;19.31;67.70;102118.41;110890;1205;61098;-71
2021/09/02 08:49:01;;;;;;;10.20;4.50;;;;;;;19.39;67.06;102122.33;110722;1206;76066;-71
2021/09/02 08:51:29;;;;;;;9.60;5.30;;;;;;;19.45;67.36;102125.92;111090;1199;70631;-72
2021/09/02 08:53:56;;;;;;;13.80;4.40;;;;;;;19.53;67.21;102123.07;110636;1205;73571;-74
2021/09/02 08:56:23;;;;;;;15.50;6.40;;;;;;;19.60;67.02;102128.66;110605;1207;61126;-73
2021/09/02 08:58:49;;;;;;;20.50;5.80;;;;;;;19.59;65.87;102125.71;110623;1205;61098;-74
2021/09/02 09:01:16;;;;;;;12.10;5.00;;;;;;;19.53;66.00;102126.88;110579;1206;61239;-73
2021/09/02 09:03:50;;;;;;;11.30;5.10;;;;;;;19.49;66.22;102128.23;110622;1205;71417;-73
2021/09/02 09:06:27;;;;;;;13.30;5.50;;;;;;;19.47;66.27;102128.01;110736;1205;73016;-74
2021/09/02 09:08:55;;;;;;;11.20;4.30;;;;;;;19.46;65.99;102129.91;110817;1205;61342;-74
2021/09/02 09:11:25;;;;;;;9.10;5.40;;;;;;;19.45;65.47;102126.48;110796;1206;60981;-74
2021/09/02 09:14:14;;;;;;;6.60;4.10;;;;;;;19.49;65.95;102128.77;110753;1205;75534;-72
2021/09/02 09:16:49;;;;;;;10.60;4.50;;;;;;;19.61;66.40;102125.30;110717;1205;71169;-74
2021/09/02 09:19:35;;;;;;;20.50;6.50;;;;;;;19.67;65.24;102126.79;110655;1205;71767;-75
2021/09/02 09:22:04;;;;;;;16.80;6.70;;;;;;;19.69;65.59;102131.14;110612;1205;62272;-74
2021/09/02 09:24:41;;;;;;;14.10;6.30;;;;;;;19.67;65.29;102133.95;110871;1199;61329;-73
2021/09/02 09:27:08;;;;;;;10.30;5.30;;;;;;;19.66;65.54;102131.63;110597;1205;74929;-72
2021/09/02 09:29:35;;;;;;;15.70;5.50;;;;;;;19.62;64.84;102134.33;110600;1203;70880;-73
2021/09/02 09:32:14;;;;;;;11.60;5.80;;;;;;;19.61;65.39;102134.41;110764;1206;72653;-73
2021/09/02 09:34:51;;;;;;;13.80;5.20;;;;;;;19.69;65.28;102129.83;110695;1203;61453;-74
2021/09/02 09:37:21;;;;;;;12.40;4.80;;;;;;;19.76;65.27;102131.08;110679;1205;61021;-72
2021/09/02 09:39:48;;;;;;;17.70;5.50;;;;;;;19.88;65.33;102132.52;110771;1205;74699;-73
2021/09/02 09:42:18;;;;;;;14.70;5.40;;;;;;;19.98;64.98;102133.73;110659;1199;71137;-73
2021/09/02 09:44:45;;;;;;;16.00;6.20;;;;;;;20.05;64.22;102130.13;110683;1199;73800;-74
2021/09/02 09:47:19;;;;;;;13.20;5.80;;;;;;;20.11;63.41;102134.75;110776;1205;61835;-75
2021/09/02 09:49:47;;;;;;;13.10;6.30;;;;;;;20.14;62.63;102136.46;110577;1205;60994;-72
2021/09/02 09:52:30;;;;;;;13.20;6.40;;;;;;;20.14;62.86;102137.55;110611;1205;74115;-74
2021/09/02 09:55:11;;;;;;;12.50;6.30;;;;;;;20.22;63.06;102137.64;110593;1203;70649;-74
2021/09/02 09:57:40;;;;;;;9.90;4.90;;;;;;;20.18;61.89;102138.30;110697;1205;72533;-73
2021/09/02 10:00:08;;;;;;;10.70;5.60;;;;;;;20.13;62.24;102131.02;110732;1205;61092;-73
2021/09/02 10:02:40;;;;;;;9.20;5.60;;;;;;;20.12;62.73;102129.58;110652;1204;61185;-72
2021/09/02 10:05:10;;;;;;;10.30;6.10;;;;;;;20.15;62.46;102124.95;110825;1205;75554;-74
2021/09/02 10:07:39;;;;;;;10.20;5.20;;;;;;;20.22;62.44;102119.86;110740;1205;71401;-74
2021/09/02 10:10:09;;;;;;;11.20;6.40;;;;;;;20.29;62.02;102116.48;110636;1205;73513;-73
2021/09/02 10:12:36;;;;;;;12.90;4.90;;;;;;;20.38;62.39;102115.52;110704;1205;61483;-72
2021/09/02 10:15:05;;;;;;;15.10;5.70;;;;;;;20.50;62.83;102117.66;110698;1205;61086;-73
2021/09/02 10:17:34;;;;;;;10.50;5.20;;;;;;;20.64;62.33;102116.20;110757;1205;74512;-73
2021/09/02 10:20:12;;;;;;;6.70;3.80;;;;;;;20.79;62.32;102120.56;110706;1198;72022;-74
2021/09/02 10:22:39;;;;;;;10.00;6.20;;;;;;;20.81;60.43;102117.02;110725;1200;74467;-74
2021/09/02 10:25:34;;;;;;;10.00;4.90;;;;;;;20.82;60.67;102112.91;110586;1205;61070;-74
2021/09/02 10:28:04;;;;;;;12.10;6.90;;;;;;;20.93;60.67;102110.54;110795;1200;61088;-74
2021/09/02 10:30:38;;;;;;;10.80;6.30;;;;;;;21.01;60.74;102106.34;111104;1205;74653;-74
2021/09/02 10:33:37;;;;;;;9.60;5.20;;;;;;;21.08;60.94;102105.16;110759;1205;71998;-73
2021/09/02 10:36:09;;;;;;;8.80;4.50;;;;;;;21.17;60.81;102110.16;110772;1205;72708;-74
2021/09/02 10:38:45;;;;;;;7.90;4.50;;;;;;;21.19;60.00;102109.30;110561;1205;61002;-75
2021/09/02 10:41:13;;;;;;;12.00;5.70;;;;;;;21.19;60.25;102105.35;110980;1205;61042;-74
2021/09/02 10:43:50;;;;;;;11.30;5.50;;;;;;;21.23;59.83;102103.77;110739;1200;75626;-73
2021/09/02 10:46:29;;;;;;;11.30;5.70;;;;;;;21.29;59.47;102100.79;110753;1198;71205;-73
2021/09/02 10:49:18;;;;;;;10.20;6.40;;;;;;;21.44;59.52;102099.40;110772;1205;72637;-73
2021/09/02 10:51:59;;;;;;;15.00;6.20;;;;;;;21.55;58.86;102091.48;110890;1203;61090;-74
2021/09/02 10:54:29;;;;;;;14.80;7.20;;;;;;;21.86;58.68;102091.95;110642;1205;62331;-74
2021/09/02 10:57:04;;;;;;;9.50;5.90;;;;;;;22.19;57.29;102094.14;111805;1198;74652;-74
2021/09/02 10:59:41;;;;;;;8.00;4.80;;;;;;;22.37;56.73;102093.10;110603;1205;72677;-73
2021/09/02 11:02:28;;;;;;;8.50;4.50;;;;;;;22.53;56.68;102093.27;110659;1205;72578;-73
2021/09/02 11:05:00;;;;;;;11.80;4.50;;;;;;;22.67;55.49;102093.15;110622;1205;61179;-75
2021/09/02 11:07:43;;;;;;;13.40;5.80;;;;;;;22.69;54.89;102093.48;110776;1205;61063;-73
2021/09/02 11:10:16;;;;;;;8.00;4.40;;;;;;;22.60;54.52;102096.66;110575;1205;74406;-73
2021/09/02 11:12:43;;;;;;;12.20;5.70;;;;;;;22.50;54.14;102095.95;110759;1205;70977;-75
2021/09/02 11:15:18;;;;;;;10.70;6.10;;;;;;;22.51;55.10;102096.08;110635;1205;71768;-74